Time;durP1;ratioP1;P1;durP2;ratioP2;P2;SDS_P1;SDS_P2;PMS_P1;PMS_P2;Temp;Humidity;BMP_temperature;BMP_pressure;BME280_temperature;BME280_humidity;BME280_pressure;Samples;Min_cycle;Max_cycle;Signal;HPM_P1;HPM_P2
2022/08/18 00:02:27;;;;;;;6.20;3.10;;;13.10;71.90;;;;;;5030886;28;20211;-82
2022/08/18 00:04:56;;;;;;;5.90;3.20;;;13.10;71.90;;;;;;5042445;28;20204;-82
2022/08/18 00:07:30;;;;;;;4.03;2.80;;;13.20;72.20;;;;;;5040769;28;20187;-83
2022/08/18 00:09:59;;;;;;;5.57;2.50;;;13.30;71.10;;;;;;5026867;28;20208;-83
2022/08/18 00:12:28;;;;;;;5.87;2.87;;;13.30;70.20;;;;;;5037466;28;20179;-84
2022/08/18 00:15:00;;;;;;;5.63;2.90;;;13.30;70.50;;;;;;5033668;28;20198;-83
2022/08/18 00:17:28;;;;;;;5.47;2.50;;;13.30;70.40;;;;;;5040300;28;20262;-82
2022/08/18 00:19:55;;;;;;;9.80;2.40;;;13.40;70.40;;;;;;5045776;28;20168;-84
2022/08/18 00:22:23;;;;;;;5.80;2.87;;;13.50;70.20;;;;;;5038839;28;20219;-83
2022/08/18 00:24:53;;;;;;;6.80;2.77;;;13.70;69.40;;;;;;5036183;28;20209;-83
2022/08/18 00:27:24;;;;;;;7.07;2.93;;;13.70;68.90;;;;;;5048159;28;20179;-81
2022/08/18 00:29:54;;;;;;;8.57;3.17;;;13.70;68.10;;;;;;5038429;28;20206;-82
2022/08/18 00:32:26;;;;;;;5.90;2.77;;;13.90;68.00;;;;;;5052445;28;20176;-82
2022/08/18 00:34:54;;;;;;;5.67;2.97;;;14.00;67.00;;;;;;5031758;28;20861;-84
2022/08/18 00:37:22;;;;;;;5.67;2.80;;;14.00;67.10;;;;;;5019338;28;20218;-81
2022/08/18 00:39:53;;;;;;;10.23;2.90;;;14.10;66.00;;;;;;5031890;28;20648;-83
2022/08/18 00:42:27;;;;;;;4.07;2.63;;;14.20;66.50;;;;;;5029778;28;20540;-81
2022/08/18 00:44:56;;;;;;;3.50;2.90;;;14.20;66.00;;;;;;5045920;28;20215;-84
2022/08/18 00:47:27;;;;;;;7.90;2.93;;;14.30;66.50;;;;;;5029132;28;20185;-83
2022/08/18 00:49:54;;;;;;;4.63;2.70;;;14.30;64.50;;;;;;5033834;28;20184;-81
2022/08/18 00:52:24;;;;;;;6.30;2.90;;;14.30;65.00;;;;;;5039644;28;20208;-81
2022/08/18 00:54:54;;;;;;;6.77;3.13;;;14.30;65.10;;;;;;5034842;28;20633;-83
2022/08/18 00:57:23;;;;;;;4.80;2.90;;;14.30;65.40;;;;;;5024941;28;20308;-86
2022/08/18 00:59:54;;;;;;;5.43;2.80;;;14.50;65.40;;;;;;5027276;28;20587;-86
2022/08/18 01:02:30;;;;;;;5.10;2.30;;;14.60;64.30;;;;;;5037640;28;20235;-81
2022/08/18 01:05:10;;;;;;;6.43;2.40;;;14.80;63.80;;;;;;5035068;28;20188;-82
2022/08/18 01:07:44;;;;;;;8.60;2.90;;;14.90;63.30;;;;;;5027082;28;20204;-80
2022/08/18 01:10:16;;;;;;;6.70;2.63;;;15.20;63.50;;;;;;5038639;28;20215;-83
2022/08/18 01:12:55;;;;;;;6.50;2.40;;;15.50;61.50;;;;;;5055365;28;20172;-83
2022/08/18 01:15:24;;;;;;;5.63;2.00;;;15.70;61.50;;;;;;5053686;28;20187;-80
2022/08/18 01:23:45;;;;;;;10.00;2.33;;;17.00;56.10;;;;;;5055407;28;20277;-79
2022/08/18 01:26:15;;;;;;;5.43;2.43;;;17.10;54.60;;;;;;5036372;28;20654;-82
2022/08/18 01:28:45;;;;;;;6.10;2.40;;;17.00;54.40;;;;;;5018067;28;20533;-83
2022/08/18 01:31:28;;;;;;;5.87;2.03;;;16.70;54.30;;;;;;5029190;28;20187;-82
2022/08/18 01:33:56;;;;;;;3.67;1.90;;;16.40;56.10;;;;;;5032334;28;20180;-82
2022/08/18 01:36:23;;;;;;;4.33;2.17;;;16.30;56.20;;;;;;5032948;28;20215;-82
2022/08/18 01:38:52;;;;;;;5.07;2.33;;;16.20;56.70;;;;;;5037327;28;20218;-82
2022/08/18 01:41:21;;;;;;;3.67;2.37;;;16.30;56.90;;;;;;5048578;28;20210;-82
2022/08/18 01:43:50;;;;;;;6.40;2.60;;;16.70;56.10;;;;;;5034567;28;20262;-78
2022/08/18 01:46:22;;;;;;;8.57;2.33;;;16.80;54.10;;;;;;5035166;28;20194;-84
2022/08/18 01:48:50;;;;;;;7.70;2.47;;;16.90;54.50;;;;;;5032686;28;20180;-84
2022/08/18 01:51:20;;;;;;;4.27;2.27;;;17.20;53.50;;;;;;5049764;28;20274;-85
2022/08/18 01:53:48;;;;;;;8.03;2.03;;;17.60;52.40;;;;;;5033843;28;20705;-86
2022/08/18 01:56:16;;;;;;;4.23;2.10;;;18.00;51.00;;;;;;5045603;28;20291;-84
2022/08/18 01:58:46;;;;;;;5.37;1.93;;;18.40;50.80;;;;;;5050644;28;20183;-85
2022/08/18 02:01:15;;;;;;;5.53;1.90;;;18.90;49.90;;;;;;5041592;28;20251;-81
2022/08/18 02:04:07;;;;;;;10.87;2.30;;;18.80;47.00;;;;;;5030629;28;20196;-83
2022/08/18 02:06:36;;;;;;;4.20;2.13;;;18.50;47.40;;;;;;5046750;28;20179;-82
2022/08/18 02:09:04;;;;;;;4.67;1.50;;;18.30;49.20;;;;;;5023033;28;20192;-83
2022/08/18 02:11:32;;;;;;;4.30;1.60;;;18.50;47.30;;;;;;5026969;28;20193;-81
2022/08/18 02:14:02;;;;;;;5.03;1.73;;;18.40;48.40;;;;;;5032415;28;20212;-85
2022/08/18 02:16:32;;;;;;;2.77;1.43;;;18.80;47.60;;;;;;5041381;28;20192;-85
2022/08/18 02:18:59;;;;;;;3.50;1.47;;;19.10;46.40;;;;;;5039141;28;20258;-85
2022/08/18 02:21:27;;;;;;;2.67;1.23;;;19.50;44.70;;;;;;5033763;28;20181;-82
2022/08/18 02:23:54;;;;;;;3.13;1.20;;;19.90;43.60;;;;;;5027684;28;20185;-84
2022/08/18 02:26:25;;;;;;;4.97;1.17;;;19.60;43.70;;;;;;5037851;28;20184;-81
2022/08/18 02:28:52;;;;;;;4.40;1.43;;;19.50;43.70;;;;;;5035148;28;20216;-85
2022/08/18 02:31:23;;;;;;;3.57;1.50;;;19.20;43.00;;;;;;5034095;28;20175;-84
2022/08/18 02:33:50;;;;;;;3.20;1.37;;;19.30;43.40;;;;;;5051809;28;20229;-83
2022/08/18 02:36:18;;;;;;;1.43;1.07;;;19.60;42.60;;;;;;5053754;28;20226;-84
2022/08/18 02:38:49;;;;;;;1.73;1.10;;;19.90;39.80;;;;;;5053481;28;20637;-87
2022/08/18 02:41:16;;;;;;;1.10;1.00;;;20.40;39.30;;;;;;5023966;28;20193;-81
2022/08/18 02:43:44;;;;;;;2.17;1.20;;;20.90;38.80;;;;;;5025485;28;20238;-85
2022/08/18 02:46:11;;;;;;;6.80;1.40;;;21.20;38.10;;;;;;5028730;28;20188;-81
2022/08/18 02:48:39;;;;;;;4.60;0.90;;;21.30;36.70;;;;;;5032704;28;20179;-87
2022/08/18 02:51:16;;;;;;;1.80;1.20;;;21.30;36.90;;;;;;5035538;28;20272;-83
2022/08/18 02:53:45;;;;;;;1.33;0.80;;;21.40;36.00;;;;;;5048312;28;20242;-85
2022/08/18 02:56:23;;;;;;;1.00;0.70;;;21.20;35.30;;;;;;5034235;28;20227;-84
2022/08/18 02:58:52;;;;;;;1.40;0.90;;;21.40;33.50;;;;;;5034223;28;20664;-87
2022/08/18 03:01:22;;;;;;;4.00;1.20;;;21.80;34.30;;;;;;5034276;28;20265;-83
2022/08/18 03:03:50;;;;;;;2.77;1.10;;;21.80;33.90;;;;;;5033379;28;20191;-80
2022/08/18 03:06:18;;;;;;;1.97;1.10;;;22.00;34.00;;;;;;5025384;28;20207;-82
2022/08/18 03:08:48;;;;;;;1.47;0.70;;;22.00;33.30;;;;;;5038287;28;20635;-84
2022/08/18 03:11:18;;;;;;;1.50;0.83;;;21.90;33.70;;;;;;5035429;28;20182;-79
2022/08/18 03:13:47;;;;;;;2.60;0.77;;;22.00;31.30;;;;;;5028720;28;20184;-84
2022/08/18 03:16:15;;;;;;;4.47;1.10;;;22.10;32.30;;;;;;5030587;28;20215;-84
2022/08/18 03:18:46;;;;;;;1.80;1.00;;;22.60;32.40;;;;;;5024648;28;20212;-83
2022/08/18 03:21:22;;;;;;;1.47;0.73;;;22.10;30.90;;;;;;5034277;28;20188;-87
2022/08/18 03:23:55;;;;;;;1.10;0.80;;;22.60;31.20;;;;;;5053426;28;20258;-85
2022/08/18 03:26:24;;;;;;;1.63;0.90;;;22.80;31.40;;;;;;5036023;28;20207;-85
2022/08/18 03:28:54;;;;;;;1.23;0.60;;;23.40;30.90;;;;;;5049781;28;20191;-83
2022/08/18 03:31:24;;;;;;;4.13;0.83;;;23.50;31.00;;;;;;5046488;28;20236;-85
2022/08/18 03:33:52;;;;;;;1.07;0.90;;;22.80;31.80;;;;;;5030515;28;20669;-82
2022/08/18 03:36:23;;;;;;;5.03;1.00;;;22.30;33.60;;;;;;5046814;28;20295;-85
2022/08/18 03:38:53;;;;;;;3.07;0.93;;;22.60;32.40;;;;;;5052319;28;20239;-82
2022/08/18 03:41:22;;;;;;;7.30;1.07;;;22.80;31.50;;;;;;5039047;28;20187;-82
2022/08/18 03:43:50;;;;;;;4.93;0.77;;;22.80;31.60;;;;;;5042706;28;20703;-84
2022/08/18 03:46:19;;;;;;;2.77;1.00;;;23.10;30.80;;;;;;5027582;28;20184;-82
2022/08/18 03:48:49;;;;;;;2.50;0.73;;;23.20;30.80;;;;;;5033430;28;20222;-81
2022/08/18 03:51:18;;;;;;;2.27;0.90;;;23.70;30.00;;;;;;5036839;28;20184;-84
2022/08/18 03:53:47;;;;;;;7.30;0.93;;;23.40;29.90;;;;;;5047481;28;20188;-82
2022/08/18 03:56:19;;;;;;;9.13;1.27;;;23.20;30.00;;;;;;5047752;28;20253;-84
2022/08/18 03:58:52;;;;;;;1.10;0.67;;;22.70;30.50;;;;;;5041485;28;20539;-83
2022/08/18 04:01:23;;;;;;;0.70;0.60;;;22.10;31.50;;;;;;5040784;28;20179;-82
2022/08/18 04:03:55;;;;;;;2.30;0.70;;;21.90;31.80;;;;;;5042186;28;20718;-83
2022/08/18 04:06:38;;;;;;;2.87;0.77;;;21.80;32.20;;;;;;5036536;28;20176;-83
2022/08/18 04:09:09;;;;;;;2.00;0.70;;;22.30;32.00;;;;;;5046641;28;20191;-81
2022/08/18 04:11:43;;;;;;;2.97;0.70;;;22.50;31.80;;;;;;5050560;28;20187;-86
2022/08/18 04:14:16;;;;;;;1.63;0.80;;;22.20;31.70;;;;;;5036967;28;20275;-84
2022/08/18 04:16:44;;;;;;;2.60;0.87;;;21.80;32.20;;;;;;5037728;28;20219;-81
2022/08/18 04:19:12;;;;;;;2.37;0.80;;;22.50;32.50;;;;;;5051078;28;20598;-82
2022/08/18 04:21:42;;;;;;;1.43;0.60;;;23.60;31.10;;;;;;5047302;28;20187;-85
2022/08/18 04:24:12;;;;;;;1.47;0.83;;;24.70;28.60;;;;;;5035787;28;20176;-85
2022/08/18 04:26:42;;;;;;;13.80;1.70;;;24.30;29.20;;;;;;5047727;28;20279;-85
2022/08/18 04:29:11;;;;;;;1.80;0.60;;;24.90;29.10;;;;;;5050628;28;20281;-84
2022/08/18 04:31:39;;;;;;;1.47;0.50;;;25.50;28.00;;;;;;5052670;28;20188;-86
2022/08/18 04:34:07;;;;;;;2.90;0.70;;;26.00;26.90;;;;;;5037015;28;20191;-84
2022/08/18 04:36:36;;;;;;;1.37;0.60;;;25.80;26.90;;;;;;5032057;28;20254;-84
2022/08/18 04:39:06;;;;;;;0.67;0.50;;;25.50;27.90;;;;;;5033368;28;20239;-84
2022/08/18 04:41:35;;;;;;;1.03;0.50;;;24.90;28.40;;;;;;5022521;28;20185;-78
2022/08/18 04:44:06;;;;;;;1.07;0.80;;;24.40;29.00;;;;;;5033221;28;20209;-85
2022/08/18 04:46:42;;;;;;;0.80;0.60;;;23.30;30.60;;;;;;5046301;28;20268;-84
2022/08/18 04:49:13;;;;;;;3.07;0.90;;;22.80;31.50;;;;;;5037049;28;20604;-82
2022/08/18 04:51:43;;;;;;;0.87;0.60;;;22.50;32.00;;;;;;5032481;28;20227;-83
2022/08/18 04:54:11;;;;;;;0.60;0.60;;;22.50;32.70;;;;;;5051179;28;20487;-83
2022/08/18 04:56:39;;;;;;;2.23;1.13;;;22.90;32.10;;;;;;5047744;28;20679;-80
2022/08/18 04:59:12;;;;;;;3.53;0.80;;;23.70;30.40;;;;;;5026202;28;20271;-85
2022/08/18 05:01:46;;;;;;;1.63;0.83;;;24.30;29.80;;;;;;5038865;28;20168;-85
2022/08/18 05:04:16;;;;;;;2.90;0.70;;;24.60;29.60;;;;;;5054287;28;20187;-83
2022/08/18 05:06:44;;;;;;;3.23;0.90;;;25.10;28.90;;;;;;5036262;28;20661;-78
2022/08/18 05:09:13;;;;;;;1.23;0.80;;;25.10;28.70;;;;;;5024355;28;20180;-79
2022/08/18 05:11:43;;;;;;;2.73;0.90;;;25.00;29.10;;;;;;5037002;28;20622;-84
2022/08/18 05:14:10;;;;;;;2.90;1.03;;;25.30;28.80;;;;;;5027673;28;20196;-86
2022/08/18 05:16:39;;;;;;;1.07;0.70;;;25.20;29.50;;;;;;5041728;28;20203;-86
2022/08/18 05:19:10;;;;;;;1.97;0.70;;;25.10;29.50;;;;;;5055013;28;20188;-84
2022/08/18 05:21:40;;;;;;;2.07;0.80;;;25.10;29.30;;;;;;5055572;28;20632;-83
2022/08/18 05:24:09;;;;;;;1.50;0.60;;;25.30;29.50;;;;;;5054994;28;20172;-78
2022/08/18 05:26:36;;;;;;;2.30;0.60;;;25.70;29.20;;;;;;5055617;28;20800;-86
2022/08/18 05:29:04;;;;;;;1.00;0.63;;;26.10;28.90;;;;;;5052081;28;20188;-81
2022/08/18 05:31:31;;;;;;;2.07;1.07;;;27.00;27.40;;;;;;5033355;28;20185;-85
2022/08/18 05:34:02;;;;;;;1.80;0.80;;;27.00;27.40;;;;;;5032932;28;20650;-84
2022/08/18 05:36:49;;;;;;;0.53;0.53;;;26.80;27.80;;;;;;5054326;28;20199;-82
2022/08/18 05:39:28;;;;;;;1.03;0.50;;;25.90;29.60;;;;;;5051873;28;20259;-82
2022/08/18 05:42:16;;;;;;;0.90;0.70;;;26.50;28.80;;;;;;5028124;28;20637;-81
2022/08/18 05:44:49;;;;;;;2.23;0.60;;;27.30;27.50;;;;;;5049969;28;20180;-85
2022/08/18 05:47:29;;;;;;;3.37;0.67;;;26.90;28.20;;;;;;5046272;28;20511;-85
2022/08/18 05:50:09;;;;;;;4.97;1.50;;;26.60;28.90;;;;;;5014824;28;20207;-77
2022/08/18 05:52:44;;;;;;;1.43;0.90;;;26.80;28.40;;;;;;5051401;28;20184;-83
2022/08/18 05:58:30;;;;;;;1.13;0.60;;;27.20;28.20;;;;;;5054725;28;20604;-85
2022/08/18 06:01:02;;;;;;;1.07;0.70;;;27.40;27.60;;;;;;5015503;28;20726;-85
2022/08/18 06:03:48;;;;;;;1.03;0.60;;;26.40;28.80;;;;;;5037587;28;20183;-78
2022/08/18 06:06:19;;;;;;;0.67;0.67;;;25.60;29.80;;;;;;5047800;28;20172;-86
2022/08/18 06:09:18;;;;;;;0.50;0.50;;;25.30;30.90;;;;;;5054133;28;20184;-82
2022/08/18 06:11:46;;;;;;;4.10;0.90;;;24.70;31.60;;;;;;5054528;28;20172;-85
2022/08/18 06:14:13;;;;;;;3.13;0.80;;;23.90;33.40;;;;;;5054525;28;20168;-85
2022/08/18 06:17:18;;;;;;;0.70;0.70;;;23.30;34.30;;;;;;5054252;28;20211;-81
2022/08/18 06:19:55;;;;;;;3.63;0.70;;;22.70;35.30;;;;;;5050584;28;20196;-85
2022/08/18 06:22:40;;;;;;;4.53;1.20;;;22.30;36.90;;;;;;5025415;28;20175;-84
2022/08/18 06:25:29;;;;;;;7.20;1.70;;;21.70;39.50;;;;;;5054129;28;20214;-84
2022/08/18 06:28:14;;;;;;;13.30;2.47;;;21.40;43.20;;;;;;5054170;28;20512;-83
2022/08/18 06:30:48;;;;;;;11.17;3.40;;;20.80;46.30;;;;;;5039419;28;20182;-84
2022/08/18 06:33:53;;;;;;;16.03;10.03;;;20.70;46.60;;;;;;5045282;28;20187;-84
2022/08/18 06:36:35;;;;;;;10.37;2.73;;;20.50;47.40;;;;;;5033158;28;20702;-84
2022/08/18 06:39:25;;;;;;;6.43;1.70;;;20.40;47.70;;;;;;5033150;28;20223;-83
2022/08/18 06:41:53;;;;;;;9.37;1.93;;;20.30;48.30;;;;;;5034113;28;20283;-83
2022/08/18 06:44:38;;;;;;;6.80;1.97;;;20.10;48.90;;;;;;5039282;28;20271;-83
2022/08/18 06:47:28;;;;;;;14.13;2.03;;;20.10;49.30;;;;;;5053825;28;20563;-82
2022/08/18 06:50:33;;;;;;;7.13;2.00;;;20.10;49.50;;;;;;5053407;28;20182;-82
2022/08/18 06:53:07;;;;;;;10.93;2.43;;;19.90;50.50;;;;;;5047204;28;20677;-81
2022/08/18 06:55:44;;;;;;;10.67;2.67;;;19.90;51.20;;;;;;5047290;28;20180;-80
2022/08/18 06:58:17;;;;;;;12.20;2.60;;;19.70;52.70;;;;;;5014239;28;20184;-83
2022/08/18 07:00:53;;;;;;;15.80;3.10;;;19.60;53.20;;;;;;5027501;28;20179;-83
2022/08/18 07:03:42;;;;;;;15.23;3.23;;;19.50;53.80;;;;;;5037588;28;20180;-84
2022/08/18 07:06:22;;;;;;;13.63;3.27;;;19.30;54.70;;;;;;5011614;28;20613;-83
2022/08/18 07:08:54;;;;;;;10.93;2.57;;;19.20;55.60;;;;;;5021655;28;20208;-84
2022/08/18 07:11:21;;;;;;;23.37;3.10;;;19.20;56.40;;;;;;5033992;28;20176;-84
2022/08/18 07:13:58;;;;;;;12.40;2.80;;;19.00;57.70;;;;;;5052821;28;20246;-85
2022/08/18 07:16:32;;;;;;;15.30;3.33;;;19.00;58.70;;;;;;5053337;28;20670;-84
2022/08/18 07:19:17;;;;;;;10.20;4.13;;;18.90;58.80;;;;;;5049648;28;20175;-84
2022/08/18 07:21:44;;;;;;;9.00;4.00;;;18.80;59.40;;;;;;5038013;28;20196;-85
2022/08/18 07:24:28;;;;;;;10.03;2.87;;;18.80;60.10;;;;;;5052399;28;20167;-84
2022/08/18 07:27:01;;;;;;;7.70;2.23;;;18.80;60.30;;;;;;5036682;28;20544;-83
2022/08/18 07:29:36;;;;;;;5.70;2.20;;;18.70;60.40;;;;;;5044600;28;20238;-83
2022/08/18 07:32:24;;;;;;;7.90;2.30;;;18.60;60.60;;;;;;5046559;28;20168;-84
2022/08/18 07:34:58;;;;;;;13.40;2.37;;;18.60;61.20;;;;;;5038843;28;20182;-83
2022/08/18 07:37:38;;;;;;;11.27;2.43;;;18.50;61.80;;;;;;5034746;28;20215;-84
2022/08/18 07:40:19;;;;;;;10.87;2.20;;;18.40;62.00;;;;;;5045987;28;20303;-83
2022/08/18 07:42:53;;;;;;;8.00;2.07;;;18.40;62.10;;;;;;5045524;28;20184;-81
2022/08/18 07:45:43;;;;;;;13.23;2.50;;;18.30;62.80;;;;;;5037054;28;20168;-83
2022/08/18 07:48:45;;;;;;;8.17;2.53;;;18.30;63.00;;;;;;5028544;28;20175;-83
2022/08/18 07:51:31;;;;;;;12.07;2.80;;;18.30;63.10;;;;;;5012285;28;20184;-82
2022/08/18 07:54:18;;;;;;;15.73;5.23;;;18.30;63.20;;;;;;5022288;28;20188;-82
2022/08/18 07:57:01;;;;;;;18.13;4.67;;;18.20;63.30;;;;;;5036186;28;20200;-83
2022/08/18 08:00:00;;;;;;;12.47;4.10;;;18.10;63.60;;;;;;5032364;28;20672;-83
2022/08/18 08:02:45;;;;;;;11.30;3.60;;;18.20;63.80;;;;;;5031167;28;20271;-83
2022/08/18 08:05:16;;;;;;;9.10;3.30;;;18.10;63.80;;;;;;5038009;28;20274;-84
2022/08/18 08:08:08;;;;;;;12.83;3.23;;;18.10;64.00;;;;;;5044875;28;20176;-83
2022/08/18 08:10:52;;;;;;;6.13;2.60;;;18.00;64.20;;;;;;5029569;28;20192;-84
2022/08/18 08:13:38;;;;;;;6.03;2.60;;;18.00;64.60;;;;;;5042098;28;20175;-84
2022/08/18 08:16:34;;;;;;;13.30;3.07;;;17.90;65.00;;;;;;5051742;28;20176;-84
2022/08/18 08:19:10;;;;;;;8.23;3.00;;;17.80;65.50;;;;;;5043024;28;20215;-84
2022/08/18 08:21:46;;;;;;;5.63;2.60;;;17.80;65.90;;;;;;5045960;28;20273;-84
2022/08/18 08:24:40;;;;;;;11.93;3.30;;;17.80;66.50;;;;;;5050774;28;20183;-84
2022/08/18 08:27:28;;;;;;;11.03;3.43;;;17.80;66.60;;;;;;5051644;28;20180;-84
2022/08/18 08:30:07;;;;;;;8.40;2.70;;;17.70;66.60;;;;;;5042876;28;20585;-84
2022/08/18 08:32:43;;;;;;;7.87;2.63;;;17.70;66.50;;;;;;5052311;28;20198;-84
2022/08/18 08:35:17;;;;;;;8.60;2.53;;;17.70;65.90;;;;;;5034903;28;20646;-83
2022/08/18 08:37:48;;;;;;;13.30;2.27;;;17.60;65.10;;;;;;5029833;28;20219;-82
2022/08/18 08:40:31;;;;;;;8.97;2.50;;;17.60;64.90;;;;;;5028762;28;20275;-84
2022/08/18 08:43:24;;;;;;;5.60;2.57;;;17.50;64.40;;;;;;5011990;28;20184;-82
2022/08/18 08:46:15;;;;;;;5.93;2.40;;;17.60;64.40;;;;;;5027554;28;20635;-81
2022/08/18 08:49:31;;;;;;;7.87;2.20;;;17.60;64.30;;;;;;5051441;28;20172;-82
2022/08/18 08:52:23;;;;;;;7.37;2.70;;;17.60;64.40;;;;;;5044195;28;20184;-82
2022/08/18 08:55:03;;;;;;;6.10;2.37;;;17.50;64.50;;;;;;5051873;28;20172;-82
2022/08/18 08:57:41;;;;;;;7.27;1.77;;;17.50;64.40;;;;;;5050216;28;20246;-82
2022/08/18 09:00:13;;;;;;;12.17;2.70;;;17.40;64.70;;;;;;5038676;28;20180;-82
2022/08/18 09:02:57;;;;;;;6.30;1.90;;;17.40;64.30;;;;;;5044254;28;20184;-83
2022/08/18 09:05:26;;;;;;;4.73;2.20;;;17.40;64.70;;;;;;5052443;28;20184;-83
2022/08/18 09:08:12;;;;;;;6.50;2.50;;;17.50;64.90;;;;;;5051572;28;20181;-80
2022/08/18 09:10:51;;;;;;;10.00;2.80;;;17.50;65.10;;;;;;5036573;28;20180;-82
2022/08/18 09:14:00;;;;;;;8.10;2.53;;;17.40;65.40;;;;;;5056036;28;20176;-81
2022/08/18 09:16:45;;;;;;;10.70;3.20;;;17.40;65.50;;;;;;5025743;28;20223;-81
2022/08/18 09:19:48;;;;;;;7.37;2.70;;;17.30;65.70;;;;;;5055399;28;20188;-81
2022/08/18 09:22:44;;;;;;;5.60;2.60;;;17.30;65.80;;;;;;5012535;28;20180;-82
2022/08/18 09:25:32;;;;;;;8.60;2.70;;;17.30;66.00;;;;;;5055467;28;20172;-81
2022/08/18 09:28:18;;;;;;;9.77;2.80;;;17.20;66.10;;;;;;5036379;28;20635;-82
2022/08/18 09:30:45;;;;;;;12.03;2.70;;;17.10;66.30;;;;;;5042256;28;20184;-82
2022/08/18 09:33:24;;;;;;;7.73;2.40;;;17.10;66.50;;;;;;5055269;28;20180;-82
2022/08/18 09:36:19;;;;;;;4.83;2.47;;;17.10;66.80;;;;;;5040186;28;20219;-82
2022/08/18 09:41:57;;;;;;;6.60;2.43;;;17.00;67.30;;;;;;5053058;28;20248;-82
2022/08/18 09:44:46;;;;;;;7.67;3.20;;;17.00;67.30;;;;;;5055178;28;20176;-82
2022/08/18 09:47:33;;;;;;;7.30;3.17;;;17.00;67.30;;;;;;5055248;28;20547;-82
2022/08/18 09:50:06;;;;;;;8.90;3.07;;;17.00;67.10;;;;;;5040271;28;20642;-82
2022/08/18 09:52:33;;;;;;;5.23;2.90;;;16.80;68.10;;;;;;5054947;28;20183;-82
2022/08/18 09:55:28;;;;;;;11.60;3.20;;;16.80;68.80;;;;;;5055800;28;20194;-81
2022/08/18 09:58:20;;;;;;;5.77;3.33;;;16.80;68.90;;;;;;5046620;28;20224;-81
2022/08/18 10:01:25;;;;;;;8.77;3.87;;;16.70;68.10;;;;;;5042408;28;20248;-82
2022/08/18 10:04:13;;;;;;;10.53;3.30;;;16.70;68.30;;;;;;5048967;28;20179;-81
2022/08/18 10:06:46;;;;;;;11.97;3.43;;;16.60;68.10;;;;;;5048274;28;20634;-81
2022/08/18 10:09:20;;;;;;;5.37;2.80;;;16.60;68.20;;;;;;5054314;28;20186;-81
2022/08/18 10:11:55;;;;;;;10.57;2.93;;;16.60;67.70;;;;;;5053763;28;20510;-81
2022/08/18 10:14:50;;;;;;;9.50;2.67;;;16.60;67.30;;;;;;5054418;28;20542;-81
2022/08/18 10:17:17;;;;;;;6.73;3.10;;;16.50;67.70;;;;;;5054346;28;20211;-81
2022/08/18 10:20:23;;;;;;;4.37;3.33;;;16.50;67.30;;;;;;5054467;28;20258;-81
2022/08/18 10:22:50;;;;;;;5.83;3.30;;;16.60;67.30;;;;;;5053989;28;20183;-81
2022/08/18 10:25:41;;;;;;;5.73;2.73;;;16.60;66.80;;;;;;5040631;28;20508;-81
2022/08/18 10:28:30;;;;;;;7.90;2.90;;;16.50;66.50;;;;;;5042858;28;20180;-81
2022/08/18 10:31:07;;;;;;;4.93;2.50;;;16.50;66.50;;;;;;5049217;28;20183;-82
2022/08/18 10:34:09;;;;;;;4.90;2.40;;;16.50;66.30;;;;;;5054076;28;20180;-81
2022/08/18 10:36:45;;;;;;;2.70;2.37;;;16.50;65.60;;;;;;5053490;28;20217;-82
2022/08/18 10:39:43;;;;;;;7.30;2.60;;;16.50;65.50;;;;;;5021576;28;20603;-82
2022/08/18 10:42:10;;;;;;;5.57;2.47;;;16.50;65.40;;;;;;5043938;28;20195;-82
2022/08/18 10:44:45;;;;;;;4.67;2.20;;;16.60;65.60;;;;;;5053039;28;20182;-81
2022/08/18 10:47:28;;;;;;;4.53;1.83;;;16.50;64.60;;;;;;5053430;28;20707;-82
2022/08/18 10:49:56;;;;;;;3.80;2.20;;;16.50;64.50;;;;;;5038399;28;20188;-82
2022/08/18 10:52:40;;;;;;;5.53;2.07;;;16.50;64.80;;;;;;5053586;28;20640;-83
2022/08/18 10:55:30;;;;;;;3.03;2.10;;;16.50;64.90;;;;;;5052464;28;20806;-83
2022/08/18 10:58:24;;;;;;;3.03;2.00;;;16.50;64.90;;;;;;5047525;28;20227;-83
2022/08/18 11:00:51;;;;;;;5.20;2.10;;;16.50;65.00;;;;;;5040508;28;20179;-83
2022/08/18 11:03:43;;;;;;;2.93;1.87;;;16.50;65.20;;;;;;5053409;28;20327;-83
2022/08/18 11:06:19;;;;;;;3.87;1.93;;;16.40;64.60;;;;;;5053520;28;20641;-81
2022/08/18 11:08:49;;;;;;;7.30;4.53;;;16.40;64.20;;;;;;5053151;28;20182;-82
2022/08/18 11:11:44;;;;;;;9.63;6.43;;;16.40;64.50;;;;;;5053944;28;20663;-82
2022/08/18 11:14:30;;;;;;;15.73;11.97;;;16.40;64.30;;;;;;5053478;28;20255;-82
2022/08/18 11:17:07;;;;;;;6.63;3.63;;;16.40;64.70;;;;;;5061243;28;20222;-81
2022/08/18 11:19:43;;;;;;;5.20;2.80;;;16.40;64.70;;;;;;5062576;28;20178;-81
2022/08/18 11:22:32;;;;;;;4.17;1.97;;;16.40;65.20;;;;;;5044018;28;20183;-82
2022/08/18 11:25:00;;;;;;;3.93;1.80;;;16.30;65.20;;;;;;5060600;28;20205;-82
2022/08/18 11:27:36;;;;;;;2.20;1.57;;;16.30;64.70;;;;;;5057493;28;20683;-81
2022/08/18 11:30:06;;;;;;;3.43;1.83;;;16.30;64.50;;;;;;5043805;28;20317;-81
2022/08/18 11:32:41;;;;;;;5.40;1.70;;;16.30;64.50;;;;;;5043758;28;20191;-81
2022/08/18 11:35:19;;;;;;;3.33;1.80;;;16.30;65.10;;;;;;5047726;28;20175;-81
2022/08/18 11:37:55;;;;;;;2.43;1.80;;;16.30;65.30;;;;;;5043827;28;20215;-81
2022/08/18 11:40:49;;;;;;;2.90;1.77;;;16.30;64.60;;;;;;5051472;28;20227;-82
2022/08/18 11:43:35;;;;;;;4.00;2.33;;;16.30;64.70;;;;;;5052573;28;20181;-81
2022/08/18 11:46:11;;;;;;;6.43;1.93;;;16.30;65.70;;;;;;5052779;28;20242;-81
2022/08/18 11:48:47;;;;;;;6.20;3.00;;;16.20;66.60;;;;;;5046953;28;20174;-81
2022/08/18 11:51:30;;;;;;;7.60;3.20;;;16.20;66.90;;;;;;5039246;28;20542;-81
2022/08/18 11:54:00;;;;;;;6.67;3.53;;;16.10;66.80;;;;;;5052654;28;20212;-81
2022/08/18 11:56:31;;;;;;;6.57;3.97;;;16.10;66.50;;;;;;5052555;28;20221;-81
2022/08/18 11:59:01;;;;;;;6.40;4.43;;;16.20;66.20;;;;;;5048161;28;20179;-81
2022/08/18 12:01:40;;;;;;;6.47;3.90;;;16.10;65.90;;;;;;5040993;28;20180;-82
2022/08/18 12:04:24;;;;;;;7.93;3.43;;;16.20;65.70;;;;;;5047630;28;20217;-81
2022/08/18 12:06:59;;;;;;;4.57;2.73;;;16.20;66.20;;;;;;5045601;28;20175;-81
2022/08/18 12:09:34;;;;;;;2.97;1.80;;;16.20;65.80;;;;;;5052389;28;20199;-81
2022/08/18 12:12:04;;;;;;;3.40;1.67;;;16.20;65.70;;;;;;5051977;28;20629;-81
2022/08/18 12:14:50;;;;;;;6.27;1.83;;;16.20;66.00;;;;;;5052483;28;20202;-82
2022/08/18 12:17:18;;;;;;;3.17;2.07;;;16.10;66.90;;;;;;5052467;28;20207;-81
2022/08/18 12:19:46;;;;;;;7.20;2.20;;;16.00;67.70;;;;;;5052115;28;20220;-82
2022/08/18 12:22:17;;;;;;;6.37;1.70;;;16.00;67.80;;;;;;5039150;28;20179;-81
2022/08/18 12:24:46;;;;;;;3.43;2.10;;;16.00;67.50;;;;;;5038596;28;20535;-82
2022/08/18 12:27:18;;;;;;;4.07;1.80;;;15.90;67.90;;;;;;5050847;28;20186;-81
2022/08/18 12:29:45;;;;;;;5.87;2.00;;;15.80;68.10;;;;;;5047279;28;20171;-82
2022/08/18 12:32:13;;;;;;;3.50;2.17;;;15.90;68.40;;;;;;5052372;28;20714;-82
2022/08/18 12:34:40;;;;;;;4.13;2.10;;;15.80;68.50;;;;;;5051978;28;20179;-82
2022/08/18 12:37:09;;;;;;;3.03;1.97;;;15.80;68.30;;;;;;5052023;28;20607;-84
2022/08/18 12:39:37;;;;;;;3.80;2.20;;;15.80;68.60;;;;;;5034342;28;20310;-82
2022/08/18 12:42:05;;;;;;;3.87;2.23;;;15.70;68.40;;;;;;5050131;28;20182;-82
2022/08/18 12:44:33;;;;;;;3.00;1.80;;;15.70;68.20;;;;;;5052418;28;20184;-82
2022/08/18 12:47:04;;;;;;;3.73;2.17;;;15.70;68.60;;;;;;5055748;28;20188;-82
2022/08/18 12:49:31;;;;;;;3.00;2.20;;;15.70;68.90;;;;;;5041683;28;20638;-82
2022/08/18 12:51:58;;;;;;;2.53;2.03;;;15.70;69.60;;;;;;5054936;28;20201;-82
2022/08/18 12:54:26;;;;;;;3.17;2.00;;;15.60;69.40;;;;;;5055770;28;20710;-82
2022/08/18 12:56:56;;;;;;;3.17;1.90;;;15.60;69.70;;;;;;5045447;28;20207;-82
2022/08/18 12:59:24;;;;;;;2.87;1.90;;;15.60;69.70;;;;;;5047090;28;20187;-81
2022/08/18 13:01:53;;;;;;;3.17;2.10;;;15.50;70.00;;;;;;5052497;28;20204;-82
2022/08/18 13:04:20;;;;;;;3.40;1.80;;;15.50;70.40;;;;;;5054797;28;20273;-82
2022/08/18 13:06:53;;;;;;;3.47;1.90;;;15.40;70.60;;;;;;5051853;28;20191;-82
2022/08/18 13:09:21;;;;;;;3.33;2.00;;;15.40;70.20;;;;;;5044209;28;20224;-82
2022/08/18 13:11:49;;;;;;;3.37;1.80;;;15.40;70.10;;;;;;5043858;28;20715;-82
2022/08/18 13:14:17;;;;;;;2.90;1.63;;;15.40;69.90;;;;;;5041307;28;20191;-82
2022/08/18 13:16:45;;;;;;;3.10;1.63;;;15.40;69.90;;;;;;5053285;28;20215;-82
2022/08/18 13:19:14;;;;;;;3.23;1.73;;;15.40;69.90;;;;;;5054638;28;20194;-82
2022/08/18 13:21:41;;;;;;;2.17;1.50;;;15.40;69.80;;;;;;5049015;28;20198;-82
2022/08/18 13:24:10;;;;;;;3.93;1.93;;;15.40;69.20;;;;;;5055528;28;20210;-82
2022/08/18 13:26:41;;;;;;;2.60;1.87;;;15.40;69.10;;;;;;5055771;28;20618;-82
2022/08/18 13:29:10;;;;;;;4.37;1.50;;;15.40;69.30;;;;;;5051516;28;20580;-82
2022/08/18 13:31:37;;;;;;;3.97;1.97;;;15.40;69.30;;;;;;5051673;28;20597;-82
2022/08/18 13:34:08;;;;;;;4.13;1.60;;;15.40;69.40;;;;;;5052616;28;20224;-82
2022/08/18 13:36:44;;;;;;;1.60;1.50;;;15.40;69.20;;;;;;5048194;28;20211;-82
2022/08/18 13:39:15;;;;;;;3.57;1.80;;;15.40;68.80;;;;;;5055014;28;20278;-81
2022/08/18 13:41:44;;;;;;;2.57;1.73;;;15.50;69.00;;;;;;5054515;28;20228;-82